createdAt,value
2022-09-18T07:59:39.483Z,21.40
2022-09-18T08:14:44.323Z,23.10
2022-09-18T08:30:06.798Z,23.90
2022-09-18T08:45:32.179Z,24.30
2022-09-18T09:00:41.750Z,24.50
2022-09-18T09:15:57.863Z,24.60
2022-09-18T09:31:05.885Z,24.70
2022-09-18T09:46:54.693Z,24.80
2022-09-18T10:02:10.696Z,24.90
2022-09-18T10:17:18.038Z,24.90
2022-09-18T10:32:37.450Z,25.00
2022-09-18T10:48:05.191Z,25.00
2022-09-18T11:03:22.566Z,25.10
2022-09-18T11:18:30.120Z,25.20
2022-09-18T11:33:41.039Z,25.20
2022-09-18T11:48:48.390Z,25.20
2022-09-18T12:03:58.888Z,25.20
2022-09-18T12:19:05.147Z,25.40
2022-09-18T12:34:19.455Z,25.40
2022-09-18T12:49:46.030Z,25.40
2022-09-18T13:04:55.000Z,25.40
2022-09-18T13:20:06.557Z,25.30
2022-09-18T13:35:23.408Z,25.30
2022-09-18T13:50:28.907Z,25.30
2022-09-18T14:05:35.241Z,25.30
2022-09-18T14:20:39.935Z,25.20
2022-09-18T14:35:52.261Z,25.10
2022-09-18T14:51:02.721Z,25.10
2022-09-18T15:06:17.631Z,25.10
2022-09-18T15:21:32.824Z,25.10
2022-09-18T15:36:40.910Z,25.10
2022-09-18T15:51:45.466Z,25.10
2022-09-18T16:06:56.827Z,25.00
2022-09-18T16:22:10.994Z,25.00
2022-09-18T16:37:17.397Z,25.00
2022-09-18T16:52:21.946Z,24.90
2022-09-18T17:07:26.540Z,24.90
2022-09-18T17:22:31.951Z,24.90
2022-09-18T17:37:36.851Z,24.90
2022-09-18T17:52:41.687Z,24.80
2022-09-18T18:07:46.282Z,24.80
